sensor_id;sensor_type;location;lat;lon;timestamp;P1;durP1;ratioP1;P2;durP2;ratioP2
59097;SDS011;44883;52.760;6.610;2022-07-23T00:02:08;7.00;;;4.15;;
59097;SDS011;44883;52.760;6.610;2022-07-23T00:04:33;6.82;;;4.15;;
59097;SDS011;44883;52.760;6.610;2022-07-23T00:06:59;7.97;;;4.03;;
59097;SDS011;44883;52.760;6.610;2022-07-23T00:09:24;5.82;;;4.10;;
59097;SDS011;44883;52.760;6.610;2022-07-23T00:11:51;6.88;;;3.90;;
59097;SDS011;44883;52.760;6.610;2022-07-23T00:14:16;6.30;;;3.80;;
59097;SDS011;44883;52.760;6.610;2022-07-23T00:16:42;6.78;;;4.20;;
59097;SDS011;44883;52.760;6.610;2022-07-23T00:19:08;3.17;;;1.50;;
59097;SDS011;44883;52.760;6.610;2022-07-23T00:21:33;6.47;;;1.90;;
59097;SDS011;44883;52.760;6.610;2022-07-23T00:23:59;4.80;;;1.63;;
59097;SDS011;44883;52.760;6.610;2022-07-23T00:26:24;6.25;;;3.70;;
59097;SDS011;44883;52.760;6.610;2022-07-23T00:28:50;6.32;;;4.53;;
59097;SDS011;44883;52.760;6.610;2022-07-23T00:31:15;5.65;;;4.22;;
59097;SDS011;44883;52.760;6.610;2022-07-23T00:33:41;7.13;;;4.50;;
59097;SDS011;44883;52.760;6.610;2022-07-23T00:36:07;7.95;;;4.20;;
59097;SDS011;44883;52.760;6.610;2022-07-23T00:38:33;5.45;;;3.30;;
59097;SDS011;44883;52.760;6.610;2022-07-23T00:40:58;8.40;;;3.42;;
59097;SDS011;44883;52.760;6.610;2022-07-23T00:43:24;4.72;;;3.25;;
59097;SDS011;44883;52.760;6.610;2022-07-23T00:45:50;4.82;;;2.90;;
59097;SDS011;44883;52.760;6.610;2022-07-23T00:48:15;7.05;;;3.70;;
59097;SDS011;44883;52.760;6.610;2022-07-23T00:50:41;5.68;;;3.25;;
59097;SDS011;44883;52.760;6.610;2022-07-23T00:53:07;4.68;;;3.10;;
59097;SDS011;44883;52.760;6.610;2022-07-23T00:55:34;5.05;;;2.95;;
59097;SDS011;44883;52.760;6.610;2022-07-23T00:57:59;5.03;;;3.33;;
59097;SDS011;44883;52.760;6.610;2022-07-23T01:00:26;5.88;;;3.40;;
59097;SDS011;44883;52.760;6.610;2022-07-23T01:02:54;6.55;;;3.63;;
59097;SDS011;44883;52.760;6.610;2022-07-23T01:05:19;4.93;;;3.17;;
59097;SDS011;44883;52.760;6.610;2022-07-23T01:07:47;3.88;;;3.00;;
59097;SDS011;44883;52.760;6.610;2022-07-23T01:10:16;4.10;;;2.20;;
59097;SDS011;44883;52.760;6.610;2022-07-23T01:12:58;3.58;;;2.35;;
59097;SDS011;44883;52.760;6.610;2022-07-23T01:15:26;2.20;;;0.93;;
59097;SDS011;44883;52.760;6.610;2022-07-23T01:17:51;2.10;;;1.35;;
59097;SDS011;44883;52.760;6.610;2022-07-23T01:20:17;3.97;;;2.67;;
59097;SDS011;44883;52.760;6.610;2022-07-23T01:22:43;3.97;;;2.30;;
59097;SDS011;44883;52.760;6.610;2022-07-23T01:25:09;12.40;;;3.88;;
59097;SDS011;44883;52.760;6.610;2022-07-23T01:27:35;6.40;;;4.28;;
59097;SDS011;44883;52.760;6.610;2022-07-23T01:30:01;6.22;;;4.53;;
59097;SDS011;44883;52.760;6.610;2022-07-23T01:32:27;8.32;;;5.32;;
59097;SDS011;44883;52.760;6.610;2022-07-23T01:34:53;10.25;;;5.57;;
59097;SDS011;44883;52.760;6.610;2022-07-23T01:37:19;4.78;;;1.80;;
59097;SDS011;44883;52.760;6.610;2022-07-23T01:39:45;4.93;;;3.60;;
59097;SDS011;44883;52.760;6.610;2022-07-23T01:42:10;4.97;;;3.58;;
59097;SDS011;44883;52.760;6.610;2022-07-23T01:44:36;5.70;;;2.60;;
59097;SDS011;44883;52.760;6.610;2022-07-23T01:47:01;10.68;;;3.67;;
59097;SDS011;44883;52.760;6.610;2022-07-23T01:49:27;5.22;;;2.20;;
59097;SDS011;44883;52.760;6.610;2022-07-23T01:51:52;4.28;;;1.52;;
59097;SDS011;44883;52.760;6.610;2022-07-23T01:54:28;9.65;;;3.75;;
59097;SDS011;44883;52.760;6.610;2022-07-23T01:56:54;4.40;;;2.97;;
59097;SDS011;44883;52.760;6.610;2022-07-23T01:59:20;6.00;;;3.15;;
59097;SDS011;44883;52.760;6.610;2022-07-23T02:01:46;4.00;;;2.90;;
59097;SDS011;44883;52.760;6.610;2022-07-23T02:04:12;3.90;;;2.33;;
59097;SDS011;44883;52.760;6.610;2022-07-23T02:06:38;5.03;;;3.08;;
59097;SDS011;44883;52.760;6.610;2022-07-23T02:09:03;7.28;;;1.75;;
59097;SDS011;44883;52.760;6.610;2022-07-23T02:11:29;3.58;;;2.95;;
59097;SDS011;44883;52.760;6.610;2022-07-23T02:13:55;5.45;;;3.28;;
59097;SDS011;44883;52.760;6.610;2022-07-23T02:16:20;21.73;;;2.05;;
59097;SDS011;44883;52.760;6.610;2022-07-23T02:18:46;33.47;;;4.35;;
59097;SDS011;44883;52.760;6.610;2022-07-23T02:21:12;15.70;;;1.50;;
59097;SDS011;44883;52.760;6.610;2022-07-23T02:23:38;4.13;;;1.33;;
59097;SDS011;44883;52.760;6.610;2022-07-23T02:26:03;16.70;;;3.30;;
59097;SDS011;44883;52.760;6.610;2022-07-23T02:28:29;4.20;;;3.08;;
59097;SDS011;44883;52.760;6.610;2022-07-23T02:30:54;5.07;;;2.83;;
59097;SDS011;44883;52.760;6.610;2022-07-23T02:33:20;8.40;;;3.42;;
59097;SDS011;44883;52.760;6.610;2022-07-23T02:35:46;6.22;;;3.03;;
59097;SDS011;44883;52.760;6.610;2022-07-23T02:38:11;2.78;;;1.23;;
59097;SDS011;44883;52.760;6.610;2022-07-23T02:40:37;24.70;;;3.53;;
59097;SDS011;44883;52.760;6.610;2022-07-23T02:43:03;12.02;;;3.65;;
59097;SDS011;44883;52.760;6.610;2022-07-23T02:45:28;8.50;;;3.58;;
59097;SDS011;44883;52.760;6.610;2022-07-23T02:47:54;4.75;;;2.90;;
59097;SDS011;44883;52.760;6.610;2022-07-23T02:50:20;11.63;;;2.80;;
59097;SDS011;44883;52.760;6.610;2022-07-23T02:52:45;10.88;;;2.85;;
59097;SDS011;44883;52.760;6.610;2022-07-23T02:55:11;6.55;;;2.70;;
59097;SDS011;44883;52.760;6.610;2022-07-23T02:57:37;4.15;;;2.40;;
59097;SDS011;44883;52.760;6.610;2022-07-23T03:00:03;4.32;;;2.35;;
59097;SDS011;44883;52.760;6.610;2022-07-23T03:02:30;1.38;;;0.93;;
59097;SDS011;44883;52.760;6.610;2022-07-23T03:04:56;2.67;;;2.20;;
59097;SDS011;44883;52.760;6.610;2022-07-23T03:07:22;4.78;;;2.72;;
59097;SDS011;44883;52.760;6.610;2022-07-23T03:09:47;3.55;;;2.60;;
59097;SDS011;44883;52.760;6.610;2022-07-23T03:12:13;3.13;;;2.63;;
59097;SDS011;44883;52.760;6.610;2022-07-23T03:14:39;14.63;;;1.90;;
59097;SDS011;44883;52.760;6.610;2022-07-23T03:17:05;1.48;;;0.80;;
59097;SDS011;44883;52.760;6.610;2022-07-23T03:19:31;3.97;;;1.70;;
59097;SDS011;44883;52.760;6.610;2022-07-23T03:21:56;4.45;;;0.88;;
59097;SDS011;44883;52.760;6.610;2022-07-23T03:24:22;2.42;;;0.60;;
59097;SDS011;44883;52.760;6.610;2022-07-23T03:27:08;15.52;;;1.20;;
59097;SDS011;44883;52.760;6.610;2022-07-23T03:29:33;0.98;;;0.88;;
59097;SDS011;44883;52.760;6.610;2022-07-23T03:31:59;0.98;;;0.50;;
59097;SDS011;44883;52.760;6.610;2022-07-23T03:34:24;3.95;;;1.33;;
59097;SDS011;44883;52.760;6.610;2022-07-23T03:36:50;5.85;;;2.20;;
59097;SDS011;44883;52.760;6.610;2022-07-23T03:39:15;12.05;;;3.03;;
59097;SDS011;44883;52.760;6.610;2022-07-23T03:41:41;5.50;;;2.90;;
59097;SDS011;44883;52.760;6.610;2022-07-23T03:44:06;2.80;;;1.85;;
59097;SDS011;44883;52.760;6.610;2022-07-23T03:46:32;5.00;;;2.17;;
59097;SDS011;44883;52.760;6.610;2022-07-23T03:48:58;3.97;;;2.40;;
59097;SDS011;44883;52.760;6.610;2022-07-23T03:51:23;1.23;;;0.90;;
59097;SDS011;44883;52.760;6.610;2022-07-23T03:53:49;3.55;;;1.60;;
59097;SDS011;44883;52.760;6.610;2022-07-23T03:56:14;0.95;;;0.50;;
59097;SDS011;44883;52.760;6.610;2022-07-23T03:58:40;2.40;;;0.90;;
59097;SDS011;44883;52.760;6.610;2022-07-23T04:01:05;3.97;;;1.50;;
59097;SDS011;44883;52.760;6.610;2022-07-23T04:03:31;3.05;;;1.90;;
59097;SDS011;44883;52.760;6.610;2022-07-23T04:05:56;2.75;;;1.30;;
59097;SDS011;44883;52.760;6.610;2022-07-23T04:08:22;4.28;;;2.63;;
59097;SDS011;44883;52.760;6.610;2022-07-23T04:10:47;5.80;;;2.13;;
59097;SDS011;44883;52.760;6.610;2022-07-23T04:13:13;7.90;;;1.95;;
59097;SDS011;44883;52.760;6.610;2022-07-23T04:15:39;4.60;;;1.60;;
59097;SDS011;44883;52.760;6.610;2022-07-23T04:18:04;3.45;;;1.70;;
59097;SDS011;44883;52.760;6.610;2022-07-23T04:20:30;1.77;;;0.80;;
59097;SDS011;44883;52.760;6.610;2022-07-23T04:22:55;1.50;;;1.40;;
59097;SDS011;44883;52.760;6.610;2022-07-23T04:25:21;1.63;;;1.52;;
59097;SDS011;44883;52.760;6.610;2022-07-23T04:27:46;1.20;;;1.10;;
59097;SDS011;44883;52.760;6.610;2022-07-23T04:30:12;1.75;;;1.48;;
59097;SDS011;44883;52.760;6.610;2022-07-23T04:32:38;2.85;;;1.77;;
59097;SDS011;44883;52.760;6.610;2022-07-23T04:35:03;4.85;;;1.20;;
59097;SDS011;44883;52.760;6.610;2022-07-23T04:37:29;3.10;;;1.70;;
59097;SDS011;44883;52.760;6.610;2022-07-23T04:39:55;2.17;;;1.52;;
59097;SDS011;44883;52.760;6.610;2022-07-23T04:42:20;3.38;;;1.10;;
59097;SDS011;44883;52.760;6.610;2022-07-23T04:44:46;2.53;;;1.80;;
59097;SDS011;44883;52.760;6.610;2022-07-23T04:47:11;4.22;;;1.95;;
59097;SDS011;44883;52.760;6.610;2022-07-23T04:49:37;4.57;;;2.33;;
59097;SDS011;44883;52.760;6.610;2022-07-23T04:52:02;2.85;;;2.40;;
59097;SDS011;44883;52.760;6.610;2022-07-23T04:54:28;2.72;;;2.30;;
59097;SDS011;44883;52.760;6.610;2022-07-23T04:56:54;4.60;;;2.30;;
59097;SDS011;44883;52.760;6.610;2022-07-23T04:59:19;4.82;;;2.15;;
59097;SDS011;44883;52.760;6.610;2022-07-23T05:01:45;3.35;;;2.40;;
59097;SDS011;44883;52.760;6.610;2022-07-23T05:04:10;4.72;;;2.45;;
59097;SDS011;44883;52.760;6.610;2022-07-23T05:06:36;4.97;;;2.60;;
59097;SDS011;44883;52.760;6.610;2022-07-23T05:09:02;5.32;;;3.15;;
59097;SDS011;44883;52.760;6.610;2022-07-23T05:11:27;7.22;;;3.08;;
59097;SDS011;44883;52.760;6.610;2022-07-23T05:13:53;5.07;;;2.83;;
59097;SDS011;44883;52.760;6.610;2022-07-23T05:16:18;5.18;;;2.80;;
59097;SDS011;44883;52.760;6.610;2022-07-23T05:18:44;4.30;;;2.70;;
59097;SDS011;44883;52.760;6.610;2022-07-23T05:21:09;4.32;;;2.78;;
59097;SDS011;44883;52.760;6.610;2022-07-23T05:23:35;4.38;;;2.72;;
59097;SDS011;44883;52.760;6.610;2022-07-23T05:26:00;5.78;;;3.20;;
59097;SDS011;44883;52.760;6.610;2022-07-23T05:28:26;6.60;;;3.10;;
59097;SDS011;44883;52.760;6.610;2022-07-23T05:30:52;5.97;;;3.08;;
59097;SDS011;44883;52.760;6.610;2022-07-23T05:33:18;5.22;;;3.33;;
59097;SDS011;44883;52.760;6.610;2022-07-23T05:35:44;5.32;;;2.90;;
59097;SDS011;44883;52.760;6.610;2022-07-23T05:38:10;4.38;;;3.25;;
59097;SDS011;44883;52.760;6.610;2022-07-23T05:40:35;4.78;;;3.35;;
59097;SDS011;44883;52.760;6.610;2022-07-23T05:43:01;6.47;;;3.85;;
59097;SDS011;44883;52.760;6.610;2022-07-23T05:45:26;5.13;;;3.63;;
59097;SDS011;44883;52.760;6.610;2022-07-23T05:47:52;5.50;;;3.58;;
59097;SDS011;44883;52.760;6.610;2022-07-23T05:50:18;5.53;;;3.42;;
59097;SDS011;44883;52.760;6.610;2022-07-23T05:52:43;6.50;;;3.58;;
59097;SDS011;44883;52.760;6.610;2022-07-23T05:55:09;6.40;;;3.38;;
59097;SDS011;44883;52.760;6.610;2022-07-23T05:57:37;5.15;;;3.30;;
59097;SDS011;44883;52.760;6.610;2022-07-23T06:00:03;7.53;;;3.50;;
59097;SDS011;44883;52.760;6.610;2022-07-23T06:02:30;6.25;;;3.15;;
59097;SDS011;44883;52.760;6.610;2022-07-23T06:04:55;5.38;;;3.20;;
59097;SDS011;44883;52.760;6.610;2022-07-23T06:07:21;7.97;;;3.55;;
59097;SDS011;44883;52.760;6.610;2022-07-23T06:09:47;4.70;;;2.72;;
59097;SDS011;44883;52.760;6.610;2022-07-23T06:12:14;5.53;;;3.30;;
59097;SDS011;44883;52.760;6.610;2022-07-23T06:14:43;5.25;;;2.90;;
59097;SDS011;44883;52.760;6.610;2022-07-23T06:17:08;4.85;;;2.90;;
59097;SDS011;44883;52.760;6.610;2022-07-23T06:19:34;6.72;;;2.80;;
59097;SDS011;44883;52.760;6.610;2022-07-23T06:22:00;6.47;;;3.30;;
59097;SDS011;44883;52.760;6.610;2022-07-23T06:24:25;4.68;;;2.60;;
59097;SDS011;44883;52.760;6.610;2022-07-23T06:26:51;3.53;;;2.60;;
59097;SDS011;44883;52.760;6.610;2022-07-23T06:29:16;4.65;;;2.55;;
59097;SDS011;44883;52.760;6.610;2022-07-23T06:31:42;5.05;;;2.92;;
59097;SDS011;44883;52.760;6.610;2022-07-23T06:34:07;4.95;;;3.00;;
59097;SDS011;44883;52.760;6.610;2022-07-23T06:36:33;4.63;;;2.60;;
59097;SDS011;44883;52.760;6.610;2022-07-23T06:38:58;6.75;;;3.22;;
59097;SDS011;44883;52.760;6.610;2022-07-23T06:41:24;5.47;;;2.78;;
59097;SDS011;44883;52.760;6.610;2022-07-23T06:43:49;3.78;;;2.40;;
59097;SDS011;44883;52.760;6.610;2022-07-23T06:46:15;4.15;;;2.63;;
59097;SDS011;44883;52.760;6.610;2022-07-23T06:48:41;3.78;;;2.42;;
59097;SDS011;44883;52.760;6.610;2022-07-23T06:51:06;3.40;;;2.00;;
59097;SDS011;44883;52.760;6.610;2022-07-23T06:53:32;4.60;;;2.10;;
59097;SDS011;44883;52.760;6.610;2022-07-23T06:55:57;3.55;;;2.00;;
59097;SDS011;44883;52.760;6.610;2022-07-23T06:58:23;5.57;;;2.10;;
59097;SDS011;44883;52.760;6.610;2022-07-23T07:00:48;4.72;;;1.95;;
59097;SDS011;44883;52.760;6.610;2022-07-23T07:03:16;5.38;;;2.03;;
59097;SDS011;44883;52.760;6.610;2022-07-23T07:05:41;6.10;;;2.40;;
59097;SDS011;44883;52.760;6.610;2022-07-23T07:08:07;3.20;;;1.95;;
59097;SDS011;44883;52.760;6.610;2022-07-23T07:10:33;3.05;;;1.83;;
59097;SDS011;44883;52.760;6.610;2022-07-23T07:12:58;4.97;;;2.13;;
59097;SDS011;44883;52.760;6.610;2022-07-23T07:15:24;3.83;;;2.13;;
59097;SDS011;44883;52.760;6.610;2022-07-23T07:17:49;4.78;;;2.10;;
59097;SDS011;44883;52.760;6.610;2022-07-23T07:20:15;4.07;;;1.90;;
59097;SDS011;44883;52.760;6.610;2022-07-23T07:22:41;2.85;;;1.52;;
59097;SDS011;44883;52.760;6.610;2022-07-23T07:25:06;5.10;;;2.00;;
59097;SDS011;44883;52.760;6.610;2022-07-23T07:27:33;3.25;;;1.70;;
59097;SDS011;44883;52.760;6.610;2022-07-23T07:29:58;3.83;;;1.80;;
59097;SDS011;44883;52.760;6.610;2022-07-23T07:32:24;3.75;;;1.40;;
59097;SDS011;44883;52.760;6.610;2022-07-23T07:34:50;3.25;;;1.40;;
59097;SDS011;44883;52.760;6.610;2022-07-23T07:37:15;3.00;;;1.02;;
59097;SDS011;44883;52.760;6.610;2022-07-23T07:39:41;2.03;;;1.10;;
59097;SDS011;44883;52.760;6.610;2022-07-23T07:42:06;2.15;;;1.00;;
59097;SDS011;44883;52.760;6.610;2022-07-23T07:44:32;3.22;;;1.00;;
59097;SDS011;44883;52.760;6.610;2022-07-23T07:46:58;2.30;;;0.80;;
59097;SDS011;44883;52.760;6.610;2022-07-23T07:49:23;1.83;;;0.90;;
59097;SDS011;44883;52.760;6.610;2022-07-23T07:51:49;3.95;;;1.00;;
59097;SDS011;44883;52.760;6.610;2022-07-23T07:54:14;2.85;;;0.80;;
59097;SDS011;44883;52.760;6.610;2022-07-23T07:56:40;3.47;;;1.13;;
59097;SDS011;44883;52.760;6.610;2022-07-23T07:59:06;4.07;;;1.00;;
59097;SDS011;44883;52.760;6.610;2022-07-23T08:01:31;3.00;;;0.80;;
59097;SDS011;44883;52.760;6.610;2022-07-23T08:03:57;3.70;;;0.90;;
59097;SDS011;44883;52.760;6.610;2022-07-23T08:06:23;2.25;;;1.00;;
59097;SDS011;44883;52.760;6.610;2022-07-23T08:08:48;2.70;;;0.80;;
59097;SDS011;44883;52.760;6.610;2022-07-23T08:11:14;3.13;;;1.10;;
59097;SDS011;44883;52.760;6.610;2022-07-23T08:13:40;4.05;;;1.17;;
59097;SDS011;44883;52.760;6.610;2022-07-23T08:16:06;3.05;;;1.10;;
59097;SDS011;44883;52.760;6.610;2022-07-23T08:18:31;1.85;;;0.70;;
59097;SDS011;44883;52.760;6.610;2022-07-23T08:20:57;3.65;;;1.00;;
59097;SDS011;44883;52.760;6.610;2022-07-23T08:23:22;2.95;;;1.13;;
59097;SDS011;44883;52.760;6.610;2022-07-23T08:25:48;3.78;;;1.05;;
59097;SDS011;44883;52.760;6.610;2022-07-23T08:28:14;2.33;;;0.90;;
59097;SDS011;44883;52.760;6.610;2022-07-23T08:30:40;4.07;;;0.90;;
59097;SDS011;44883;52.760;6.610;2022-07-23T08:33:08;1.90;;;0.75;;
59097;SDS011;44883;52.760;6.610;2022-07-23T08:35:39;3.33;;;1.00;;
59097;SDS011;44883;52.760;6.610;2022-07-23T08:38:08;3.55;;;0.90;;
59097;SDS011;44883;52.760;6.610;2022-07-23T08:40:35;2.85;;;1.00;;
59097;SDS011;44883;52.760;6.610;2022-07-23T08:43:07;4.78;;;1.15;;
59097;SDS011;44883;52.760;6.610;2022-07-23T08:45:38;2.25;;;1.10;;
59097;SDS011;44883;52.760;6.610;2022-07-23T08:48:05;2.05;;;0.90;;
59097;SDS011;44883;52.760;6.610;2022-07-23T08:50:34;2.87;;;0.83;;
59097;SDS011;44883;52.760;6.610;2022-07-23T08:53:01;1.98;;;0.80;;
59097;SDS011;44883;52.760;6.610;2022-07-23T08:55:27;1.98;;;0.77;;
59097;SDS011;44883;52.760;6.610;2022-07-23T08:57:53;2.75;;;0.90;;
59097;SDS011;44883;52.760;6.610;2022-07-23T09:00:19;2.38;;;0.70;;
59097;SDS011;44883;52.760;6.610;2022-07-23T09:02:46;2.60;;;1.10;;
59097;SDS011;44883;52.760;6.610;2022-07-23T09:05:12;3.28;;;1.08;;
59097;SDS011;44883;52.760;6.610;2022-07-23T09:16:19;5.10;;;1.00;;
59097;SDS011;44883;52.760;6.610;2022-07-23T09:21:10;2.80;;;1.00;;
59097;SDS011;44883;52.760;6.610;2022-07-23T09:23:38;3.03;;;1.17;;
59097;SDS011;44883;52.760;6.610;2022-07-23T09:29:05;3.53;;;0.90;;
59097;SDS011;44883;52.760;6.610;2022-07-23T09:31:33;2.95;;;1.02;;
59097;SDS011;44883;52.760;6.610;2022-07-23T09:34:08;4.82;;;0.90;;
59097;SDS011;44883;52.760;6.610;2022-07-23T09:36:35;1.95;;;0.93;;
59097;SDS011;44883;52.760;6.610;2022-07-23T09:39:02;2.35;;;0.88;;
59097;SDS011;44883;52.760;6.610;2022-07-23T09:44:40;2.10;;;0.82;;
59097;SDS011;44883;52.760;6.610;2022-07-23T09:47:07;2.53;;;0.80;;
59097;SDS011;44883;52.760;6.610;2022-07-23T09:49:32;3.47;;;0.88;;
59097;SDS011;44883;52.760;6.610;2022-07-23T09:51:59;1.83;;;0.70;;
59097;SDS011;44883;52.760;6.610;2022-07-23T09:57:04;3.83;;;1.00;;
59097;SDS011;44883;52.760;6.610;2022-07-23T09:59:35;3.75;;;0.85;;
59097;SDS011;44883;52.760;6.610;2022-07-23T10:02:03;1.75;;;0.73;;
59097;SDS011;44883;52.760;6.610;2022-07-23T10:04:30;1.58;;;0.70;;
59097;SDS011;44883;52.760;6.610;2022-07-23T10:06:58;3.83;;;0.85;;
59097;SDS011;44883;52.760;6.610;2022-07-23T10:09:36;2.88;;;0.70;;
59097;SDS011;44883;52.760;6.610;2022-07-23T10:12:04;3.20;;;0.80;;
59097;SDS011;44883;52.760;6.610;2022-07-23T10:14:38;1.48;;;0.85;;
59097;SDS011;44883;52.760;6.610;2022-07-23T10:17:04;3.95;;;0.73;;
59097;SDS011;44883;52.760;6.610;2022-07-23T10:19:32;2.35;;;0.80;;
59097;SDS011;44883;52.760;6.610;2022-07-23T10:22:11;3.00;;;0.90;;
59097;SDS011;44883;52.760;6.610;2022-07-23T10:27:50;1.65;;;0.75;;
59097;SDS011;44883;52.760;6.610;2022-07-23T10:41:30;1.75;;;0.90;;
59097;SDS011;44883;52.760;6.610;2022-07-23T10:44:16;1.40;;;0.80;;
59097;SDS011;44883;52.760;6.610;2022-07-23T10:46:57;2.03;;;0.90;;
59097;SDS011;44883;52.760;6.610;2022-07-23T10:49:34;2.03;;;1.00;;
59097;SDS011;44883;52.760;6.610;2022-07-23T10:52:15;3.58;;;0.98;;
59097;SDS011;44883;52.760;6.610;2022-07-23T10:57:25;1.10;;;0.90;;
59097;SDS011;44883;52.760;6.610;2022-07-23T11:02:39;2.15;;;1.00;;
59097;SDS011;44883;52.760;6.610;2022-07-23T11:05:14;1.88;;;1.20;;
59097;SDS011;44883;52.760;6.610;2022-07-23T11:10:32;1.17;;;0.90;;
59097;SDS011;44883;52.760;6.610;2022-07-23T11:32:06;6.35;;;1.40;;
59097;SDS011;44883;52.760;6.610;2022-07-23T11:34:34;9.05;;;1.73;;
59097;SDS011;44883;52.760;6.610;2022-07-23T11:37:05;7.50;;;1.40;;
59097;SDS011;44883;52.760;6.610;2022-07-23T11:39:34;4.43;;;1.30;;
59097;SDS011;44883;52.760;6.610;2022-07-23T11:42:01;15.13;;;1.75;;
59097;SDS011;44883;52.760;6.610;2022-07-23T11:44:31;4.18;;;1.10;;
59097;SDS011;44883;52.760;6.610;2022-07-23T11:46:58;2.55;;;1.20;;
59097;SDS011;44883;52.760;6.610;2022-07-23T11:49:25;4.43;;;1.40;;
59097;SDS011;44883;52.760;6.610;2022-07-23T11:52:06;3.55;;;1.33;;
59097;SDS011;44883;52.760;6.610;2022-07-23T11:54:37;2.60;;;1.40;;
59097;SDS011;44883;52.760;6.610;2022-07-23T11:57:29;3.42;;;1.42;;
59097;SDS011;44883;52.760;6.610;2022-07-23T12:00:00;3.20;;;1.48;;
59097;SDS011;44883;52.760;6.610;2022-07-23T12:02:35;2.33;;;1.40;;
59097;SDS011;44883;52.760;6.610;2022-07-23T12:05:02;2.88;;;1.40;;
59097;SDS011;44883;52.760;6.610;2022-07-23T12:09:55;3.70;;;1.40;;
59097;SDS011;44883;52.760;6.610;2022-07-23T12:12:22;2.35;;;1.27;;
59097;SDS011;44883;52.760;6.610;2022-07-23T12:14:49;2.42;;;1.50;;
59097;SDS011;44883;52.760;6.610;2022-07-23T12:17:30;3.22;;;1.40;;
59097;SDS011;44883;52.760;6.610;2022-07-23T12:19:57;3.40;;;1.55;;
59097;SDS011;44883;52.760;6.610;2022-07-23T12:22:24;2.33;;;1.40;;
59097;SDS011;44883;52.760;6.610;2022-07-23T12:24:58;2.97;;;1.60;;
59097;SDS011;44883;52.760;6.610;2022-07-23T12:27:25;3.80;;;1.40;;
59097;SDS011;44883;52.760;6.610;2022-07-23T12:29:52;3.05;;;1.50;;
59097;SDS011;44883;52.760;6.610;2022-07-23T12:35:01;3.45;;;1.80;;
59097;SDS011;44883;52.760;6.610;2022-07-23T12:37:33;3.38;;;1.40;;
59097;SDS011;44883;52.760;6.610;2022-07-23T12:42:46;2.55;;;1.50;;
59097;SDS011;44883;52.760;6.610;2022-07-23T12:45:15;2.75;;;1.77;;
59097;SDS011;44883;52.760;6.610;2022-07-23T12:48:01;3.13;;;1.83;;
59097;SDS011;44883;52.760;6.610;2022-07-23T12:50:31;2.92;;;1.65;;
59097;SDS011;44883;52.760;6.610;2022-07-23T12:53:12;2.83;;;1.65;;
59097;SDS011;44883;52.760;6.610;2022-07-23T12:55:40;4.88;;;1.83;;
59097;SDS011;44883;52.760;6.610;2022-07-23T12:58:14;3.28;;;1.70;;
59097;SDS011;44883;52.760;6.610;2022-07-23T13:01:24;2.63;;;1.77;;
59097;SDS011;44883;52.760;6.610;2022-07-23T13:03:35;3.72;;;2.10;;
59097;SDS011;44883;52.760;6.610;2022-07-23T13:06:06;2.75;;;1.80;;
59097;SDS011;44883;52.760;6.610;2022-07-23T13:08:33;4.80;;;2.10;;
59097;SDS011;44883;52.760;6.610;2022-07-23T13:11:01;3.60;;;1.80;;
59097;SDS011;44883;52.760;6.610;2022-07-23T13:13:29;3.33;;;1.73;;
59097;SDS011;44883;52.760;6.610;2022-07-23T13:15:56;2.67;;;1.85;;
59097;SDS011;44883;52.760;6.610;2022-07-23T13:18:22;3.42;;;1.73;;
59097;SDS011;44883;52.760;6.610;2022-07-23T13:20:48;3.53;;;1.85;;
59097;SDS011;44883;52.760;6.610;2022-07-23T13:23:14;4.63;;;1.88;;
59097;SDS011;44883;52.760;6.610;2022-07-23T13:25:41;2.75;;;1.75;;
59097;SDS011;44883;52.760;6.610;2022-07-23T13:28:07;5.75;;;1.80;;
59097;SDS011;44883;52.760;6.610;2022-07-23T13:30:33;6.72;;;1.90;;
59097;SDS011;44883;52.760;6.610;2022-07-23T13:32:59;4.18;;;2.10;;
59097;SDS011;44883;52.760;6.610;2022-07-23T13:35:26;4.60;;;2.17;;
59097;SDS011;44883;52.760;6.610;2022-07-23T13:37:52;5.13;;;2.00;;
59097;SDS011;44883;52.760;6.610;2022-07-23T13:40:17;3.72;;;2.17;;
59097;SDS011;44883;52.760;6.610;2022-07-23T13:42:43;3.95;;;1.95;;
59097;SDS011;44883;52.760;6.610;2022-07-23T13:45:09;4.50;;;2.17;;
59097;SDS011;44883;52.760;6.610;2022-07-23T13:47:34;3.03;;;1.60;;
59097;SDS011;44883;52.760;6.610;2022-07-23T13:50:00;2.78;;;1.80;;
59097;SDS011;44883;52.760;6.610;2022-07-23T13:52:26;2.72;;;1.60;;
59097;SDS011;44883;52.760;6.610;2022-07-23T13:54:51;4.20;;;2.25;;
59097;SDS011;44883;52.760;6.610;2022-07-23T13:57:17;2.53;;;1.77;;
59097;SDS011;44883;52.760;6.610;2022-07-23T13:59:43;3.20;;;2.17;;
59097;SDS011;44883;52.760;6.610;2022-07-23T14:02:08;6.47;;;1.75;;
59097;SDS011;44883;52.760;6.610;2022-07-23T14:04:34;3.53;;;1.85;;
59097;SDS011;44883;52.760;6.610;2022-07-23T14:07:00;3.45;;;1.58;;
59097;SDS011;44883;52.760;6.610;2022-07-23T14:09:26;3.53;;;1.65;;
59097;SDS011;44883;52.760;6.610;2022-07-23T14:11:52;3.22;;;1.80;;
59097;SDS011;44883;52.760;6.610;2022-07-23T14:14:18;3.22;;;1.77;;
59097;SDS011;44883;52.760;6.610;2022-07-23T14:16:44;3.60;;;1.95;;
59097;SDS011;44883;52.760;6.610;2022-07-23T14:19:10;3.08;;;1.90;;
59097;SDS011;44883;52.760;6.610;2022-07-23T14:21:36;3.60;;;1.70;;
59097;SDS011;44883;52.760;6.610;2022-07-23T14:24:02;3.90;;;2.10;;
59097;SDS011;44883;52.760;6.610;2022-07-23T14:26:28;2.80;;;1.80;;
59097;SDS011;44883;52.760;6.610;2022-07-23T14:28:54;3.78;;;2.15;;
59097;SDS011;44883;52.760;6.610;2022-07-23T14:31:19;3.53;;;2.10;;
59097;SDS011;44883;52.760;6.610;2022-07-23T14:33:45;3.00;;;1.90;;
59097;SDS011;44883;52.760;6.610;2022-07-23T14:36:10;3.97;;;1.90;;
59097;SDS011;44883;52.760;6.610;2022-07-23T14:38:36;4.63;;;2.10;;
59097;SDS011;44883;52.760;6.610;2022-07-23T14:41:02;3.40;;;2.00;;
59097;SDS011;44883;52.760;6.610;2022-07-23T14:43:31;3.10;;;1.73;;
59097;SDS011;44883;52.760;6.610;2022-07-23T14:45:57;5.90;;;1.80;;
59097;SDS011;44883;52.760;6.610;2022-07-23T14:48:23;2.15;;;1.70;;
59097;SDS011;44883;52.760;6.610;2022-07-23T14:50:48;4.93;;;1.90;;
59097;SDS011;44883;52.760;6.610;2022-07-23T14:53:14;2.17;;;1.75;;
59097;SDS011;44883;52.760;6.610;2022-07-23T14:55:39;3.78;;;1.70;;
59097;SDS011;44883;52.760;6.610;2022-07-23T14:58:05;3.35;;;1.80;;
59097;SDS011;44883;52.760;6.610;2022-07-23T15:00:31;3.35;;;1.85;;
59097;SDS011;44883;52.760;6.610;2022-07-23T15:02:56;5.47;;;1.90;;
59097;SDS011;44883;52.760;6.610;2022-07-23T15:05:22;4.03;;;1.90;;
59097;SDS011;44883;52.760;6.610;2022-07-23T15:07:47;2.63;;;1.75;;
59097;SDS011;44883;52.760;6.610;2022-07-23T15:10:13;2.67;;;1.67;;
59097;SDS011;44883;52.760;6.610;2022-07-23T15:12:39;4.65;;;1.90;;
59097;SDS011;44883;52.760;6.610;2022-07-23T15:15:05;3.10;;;1.92;;
59097;SDS011;44883;52.760;6.610;2022-07-23T15:17:31;3.45;;;1.98;;
59097;SDS011;44883;52.760;6.610;2022-07-23T15:19:57;4.93;;;1.95;;
59097;SDS011;44883;52.760;6.610;2022-07-23T15:22:23;2.80;;;1.70;;
59097;SDS011;44883;52.760;6.610;2022-07-23T15:24:49;3.80;;;1.70;;
59097;SDS011;44883;52.760;6.610;2022-07-23T15:27:14;3.50;;;1.58;;
59097;SDS011;44883;52.760;6.610;2022-07-23T15:29:42;5.32;;;1.90;;
59097;SDS011;44883;52.760;6.610;2022-07-23T15:32:09;3.13;;;1.95;;
59097;SDS011;44883;52.760;6.610;2022-07-23T15:34:35;1.83;;;1.65;;
59097;SDS011;44883;52.760;6.610;2022-07-23T15:37:02;2.45;;;1.77;;
59097;SDS011;44883;52.760;6.610;2022-07-23T15:39:30;3.40;;;1.88;;
59097;SDS011;44883;52.760;6.610;2022-07-23T15:41:57;2.30;;;1.88;;
59097;SDS011;44883;52.760;6.610;2022-07-23T15:44:23;2.97;;;1.73;;
59097;SDS011;44883;52.760;6.610;2022-07-23T15:46:49;2.40;;;1.70;;
59097;SDS011;44883;52.760;6.610;2022-07-23T15:49:15;3.00;;;1.65;;
59097;SDS011;44883;52.760;6.610;2022-07-23T15:51:41;2.58;;;1.80;;
59097;SDS011;44883;52.760;6.610;2022-07-23T15:54:06;2.83;;;1.60;;
59097;SDS011;44883;52.760;6.610;2022-07-23T15:56:32;4.05;;;1.98;;